• Join FlightAware (Why Join?)
  • Login
  • US Flag 
07:34PM EDT


 

Airport Tracker/Info


-or-


 

Live Flight TrackerFlight Track Log ✈ SKW4530 ✈ 07-Oct-2013 ✈ KSLC - KBUR

Flight Track Log - Related Links

Times and Time Zones

All times are in EDT time to prevent confusion due to time zone crossing. See the SKW4530 flight status page for this flight to view local times or setup timezone preferences in your user account.

Time Position Orientation Groundspeed Altitude Reporting Facility
EDT Latitude Longitude Course Direction KTS MPH feet Rate Location/Type
01:32PM 40.7647 -111.9739 175° South 186 214 5,300  Level Salt Lake Center
01:32PM 40.7403 -111.9708 175° South 188 216 6,200 1,920 Climbing Salt Lake Center
01:33PM 40.6731 -111.9681 178° South 233 268 8,300 1,980 Climbing Salt Lake Center
01:34PM 40.6611 -111.9642 166° South 236 272 8,700 1,680 Climbing Salt Lake Center
01:35PM 40.5831 -111.9594 177° South 265 305 10,500 1,800 Climbing Salt Lake Center
01:36PM 40.5036 -111.9550 178° South 286 329 12,500 2,040 Climbing Salt Lake Center
01:37PM 40.4156 -111.9497 177° South 293 337 14,800 1,680 Climbing Salt Lake Center
01:38PM 40.3297 -111.9447 177° South 311 358 16,000 1,200 Climbing Salt Lake Center
01:39PM 40.2406 -111.9431 179° South 322 371 17,400 1,200 Climbing Salt Lake Center
01:40PM 40.1436 -111.9608 188° South 329 379 18,600 1,200 Climbing Salt Lake Center
01:41PM 40.0525 -111.9736 186° South 331 381 20,000 1,080 Climbing Salt Lake Center
01:42PM 39.9536 -111.9861 186° South 332 382 20,900 900 Climbing Salt Lake Center
01:43PM 39.8575 -112.0019 187° South 344 396 21,900 900 Climbing Salt Lake Center
01:44PM 39.7639 -112.0153 186° South 350 403 22,800 960 Climbing Salt Lake Center
01:45PM 39.6558 -112.0311 186° South 350 403 23,900 900 Climbing Salt Lake Center
01:46PM 39.5617 -112.0447 186° South 355 409 24,700 780 Climbing Salt Lake Center
01:47PM 39.4508 -112.0608 186° South 359 413 25,600 840 Climbing Salt Lake Center
01:48PM 39.3544 -112.0736 186° South 361 415 26,500 780 Climbing Salt Lake Center
01:49PM 39.2425 -112.0900 186° South 362 417 27,300 600 Climbing Salt Lake Center
01:50PM 39.1428 -112.1050 187° South 362 417 27,800 480 Climbing Salt Lake Center
01:51PM 39.0506 -112.1656 207° Southwest 368 423 28,300 480 Climbing Salt Lake Center
01:52PM 38.9608 -112.2322 210° Southwest 372 428 28,800 480 Climbing Salt Lake Center
01:53PM 38.8689 -112.2992 210° Southwest 377 434 29,300 480 Climbing Salt Lake Center
01:54PM 38.7592 -112.3783 209° Southwest 378 435 29,900 480 Climbing Salt Lake Center
01:55PM 38.6667 -112.4436 209° Southwest 378 435 30,400 480 Climbing Salt Lake Center
01:56PM 38.5756 -112.5092 209° Southwest 378 435 30,900 480 Climbing Salt Lake Center
01:57PM 38.4853 -112.5758 210° Southwest 377 434 31,400 480 Climbing Salt Lake Center
01:58PM 38.3944 -112.6389 209° Southwest 374 430 31,900 240 Climbing Salt Lake Center
01:59PM 38.3039 -112.7028 209° Southwest 373 429 32,000  Climbing Salt Lake Center
02:00PM 38.1917 -112.7819 209° Southwest 382 440 32,000  Level Salt Lake Center
02:02PM 38.0958 -112.8503 209° Southwest 392 451 32,000  Level Salt Lake Center
02:03PM 37.9994 -112.9200 210° Southwest 397 457 32,000  Level Salt Lake Center
02:04PM 37.9017 -112.9889 209° Southwest 403 464 32,000  Level Salt Lake Center
02:05PM 37.8061 -113.0572 209° Southwest 400 460 32,000  Level Salt Lake Center
02:06PM 37.7036 -113.1572 218° Southwest 392 451 32,000  Level Salt Lake Center
02:07PM 37.6206 -113.2422 219° Southwest 389 448 32,000  Level Salt Lake Center
02:08PM 37.5381 -113.3269 219° Southwest 387 445 32,000  Level Salt Lake Center
02:09PM 37.4550 -113.4097 218° Southwest 384 442 32,000  Level Los Angeles Center
02:10PM 37.3553 -113.5097 219° Southwest 383 441 32,000  Level Los Angeles Center
02:11PM 37.2733 -113.5947 220° Southwest 382 440 32,100  Climbing Los Angeles Center
02:12PM 37.1897 -113.6778 218° Southwest 384 442 32,000 -60 Descending Los Angeles Center
02:13PM 37.1067 -113.7622 219° Southwest 384 442 32,000  Level Los Angeles Center
02:14PM 37.0233 -113.8478 219° Southwest 387 445 32,000  Level Los Angeles Center
02:15PM 36.9236 -113.9444 218° Southwest 382 440 32,000  Level Los Angeles Center
02:16PM 36.8394 -114.0292 219° Southwest 385 443 32,000  Level Los Angeles Center
02:17PM 36.7553 -114.1144 219° Southwest 388 447 32,000  Level Los Angeles Center
02:18PM 36.6714 -114.2008 220° Southwest 390 449 32,000  Level Los Angeles Center
02:19PM 36.5833 -114.2811 216° Southwest 389 448 32,000  Level Los Angeles Center
02:20PM 36.5006 -114.3644 219° Southwest 385 443 32,000  Level Los Angeles Center
02:21PM 36.4169 -114.4461 218° Southwest 383 441 32,000  Level Los Angeles Center
02:22PM 36.3186 -114.5450 219° Southwest 379 436 32,000  Level Los Angeles Center
02:23PM 36.2375 -114.6272 219° Southwest 377 434 32,000  Level Los Angeles Center
02:24PM 36.1539 -114.7078 218° Southwest 379 436 32,000  Level Los Angeles Center
02:25PM 36.0708 -114.7886 218° Southwest 379 436 32,000  Level Los Angeles Center
02:26PM 36.0050 -114.8539 219° Southwest 378 435 32,000  Level Los Angeles Center
02:27PM 35.9311 -114.9494 226° Southwest 382 440 32,000  Level Los Angeles Center
02:28PM 35.8317 -115.0856 228° Southwest 381 438 32,000  Level Los Angeles Center
02:29PM 35.7606 -115.1822 228° Southwest 381 438 32,000  Level Los Angeles Center
02:31PM 35.6900 -115.2797 228° Southwest 379 436 32,000  Level Los Angeles Center
02:32PM 35.6175 -115.3761 227° Southwest 380 437 32,000  Level Los Angeles Center
02:33PM 35.5447 -115.4736 227° Southwest 385 443 32,000  Level Los Angeles Center
02:34PM 35.4739 -115.5697 228° Southwest 380 437 32,000  Level Los Angeles Center
02:35PM 35.3936 -115.6756 227° Southwest 381 438 32,000  Level Los Angeles Center
02:36PM 35.3231 -115.7714 228° Southwest 379 436 32,000  Level Los Angeles Center
02:37PM 35.2500 -115.8672 227° Southwest 383 441 32,000  Level Los Angeles Center
02:38PM 35.1786 -115.9625 228° Southwest 381 438 32,000 -600 Level Los Angeles Center
02:39PM 35.1067 -116.0581 227° Southwest 380 437 30,800 -1,740 Descending Los Angeles Center
02:40PM 35.0197 -116.1708 227° Southwest 380 437 28,500 -1,980 Descending Los Angeles Center
02:41PM 34.9517 -116.2589 227° Southwest 361 415 26,800 -1,740 Descending Los Angeles Center
02:42PM 34.8856 -116.3458 227° Southwest 352 405 25,000 -1,800 Descending Los Angeles Center
02:43PM 34.8200 -116.4303 227° Southwest 345 397 23,200 -1,440 Descending Los Angeles Center
02:44PM 34.7892 -116.5392 251° West 362 417 22,100 -600 Descending Los Angeles Center
02:45PM 34.7778 -116.6553 263° West 350 403 22,000 -60 Descending Los Angeles Center
02:46PM 34.7647 -116.7919 263° West 341 392 22,000  Level Los Angeles Center
02:47PM 34.7522 -116.9103 263° West 348 400 22,000  Level Los Angeles Center
02:48PM 34.7394 -117.0286 263° West 352 405 22,000 -540 Level Los Angeles Center
02:49PM 34.7281 -117.1458 263° West 350 403 21,000 -1,080 Descending Los Angeles Center
02:50PM 34.7161 -117.2608 263° West 344 396 19,800 -1,260 Descending Los Angeles Center
02:51PM 34.7044 -117.3750 263° West 341 392 18,500 -1,200 Descending Los Angeles Center
02:52PM 34.6922 -117.4861 262° West 333 383 17,400 -1,260 Descending Los Angeles Center
02:53PM 34.6775 -117.6183 262° West 331 381 16,000 -1,140 Descending Los Angeles Center
02:54PM 34.6658 -117.7253 262° West 323 372 15,100 -780 Descending Los Angeles Center
02:55PM 34.6550 -117.8286 263° West 313 360 14,400 -720 Descending Los Angeles Center
02:56PM 34.6450 -117.9375 264° West 321 369 13,600 -1,200 Descending Los Angeles Center
02:58PM 34.6167 -118.0630 270° West  Level FlightAware Approximate
03:00PM 34.5833 -118.3000 107° East 283 326 9,100  Level Southern California TRACON
03:01PM 34.5500 -118.3833 244° Southwest 269 310 8,000 -960 Descending Southern California TRACON
03:02PM 34.5167 -118.4667 244° Southwest 273 314 7,200 -900 Descending Southern California TRACON
03:03PM 34.4500 -118.5167 212° Southwest 265 305 6,300 -900 Descending Southern California TRACON
03:04PM 34.4000 -118.5667 220° Southwest 273 314 5,400 -660 Descending Southern California TRACON
03:05PM 34.2007 -118.3587 162° South  Level Estimated
03:05PM 34.3167 -118.5833 189° South 262 302 5,000  Level Southern California TRACON
03:06PM 34.2007 -118.3587 107° East  Level Estimated
03:06PM 34.2500 -118.6000 192° South 252 290 4,800  Level Southern California TRACON
03:07PM 34.2000 -118.5500 140° Southeast 214 246 4,000 -900 Descending Southern California TRACON
03:08PM 34.2000 -118.4833 90° East 186 214 3,000 -1,200 Descending Southern California TRACON
03:09PM 34.2000 -118.4333 90° East 154 177 1,700 -1,020 Descending Southern California TRACON
03:10PM 34.2000 -118.3833 90° East 145 167 1,000 -720 Descending Southern California TRACON
03:12PM 34.2000 -118.3500 90° East  Level FlightAware Approximate
03:19PM 34.2007 -118.3587 90° East  Level Estimated